»·PEaware :: N370BC KSBP-KPMD

N370BC :: KSBP-KPMD

FLIGHT INFORMATION

Flight Status: Arrived
Operator: Privately registered:
United States
More flights under this callsign
Pilot: Drew L. (13237)
Aircraft: BOEING 737-200
(B732)
More flights by this aircraft type
Origin: KSBP San Luis Co Regl
United States
Destination: KPMD Palmdale AF Plant 42
United States
More flights between these airports :: More routes between these airports
Route: +FLW LHS
File this flight plan on PilotEdge
Remarks:
Altitude:
(Current/Filed)
21,000ft
Speed:
(Current/Filed)
0kts
Departed: 07-Aug-18 11:17 AM
Arrived: 07-Aug-18 11:51 AM
Distance/Time
Traveled:
131nm/0:34
Distance/Time
To Go:
Arrived

Flight Plot

Page will automatically refresh every two minutes.

Flight plan parsing failed; only flown route is shown


Map Options




Map Legend


Flown Route
Filed Route
Departure Airport
Arrival Airport
Navaid (VOR, NDB)
Fix

Horizontal Profiles

Position Reports

Time Latitude Longitude Heading Altitude Ground
Speed
07-Aug-18 11:00 35.238322 -120.639646 221 184ft 0kts
07-Aug-18 11:01 35.238322 -120.639646 221 184ft 0kts
07-Aug-18 11:02 35.238322 -120.639646 221 184ft 0kts
07-Aug-18 11:03 35.238322 -120.639646 221 184ft 0kts
07-Aug-18 11:04 35.238322 -120.639646 221 184ft 0kts
07-Aug-18 11:05 35.238322 -120.639646 221 184ft 0kts
07-Aug-18 11:06 35.238322 -120.639646 221 184ft 0kts
07-Aug-18 11:07 35.238322 -120.639646 221 184ft 0kts
07-Aug-18 11:08 35.238322 -120.639646 221 184ft 0kts
07-Aug-18 11:09 35.238322 -120.639646 221 184ft 0kts
07-Aug-18 11:10 35.238322 -120.639647 221 184ft 0kts
07-Aug-18 11:11 35.238322 -120.639647 221 184ft 0kts
07-Aug-18 11:12 35.238322 -120.639647 221 184ft 0kts
07-Aug-18 11:13 35.238322 -120.639647 221 184ft 0kts
07-Aug-18 11:14 35.238322 -120.639647 221 184ft 0kts
07-Aug-18 11:15 35.236665 -120.637680 124 184ft 17kts
07-Aug-18 11:16 35.233902 -120.632823 125 184ft 15kts
07-Aug-18 11:17 35.232874 -120.632646 260 184ft 11kts
07-Aug-18 11:18 35.249162 -120.662063 302 1131ft 172kts
07-Aug-18 11:19 35.276695 -120.713752 302 4543ft 196kts
07-Aug-18 11:20 35.321320 -120.748718 23 7639ft 223kts
07-Aug-18 11:21 35.330282 -120.677046 110 9767ft 277kts
07-Aug-18 11:22 35.303184 -120.579810 110 11710ft 333kts
07-Aug-18 11:23 35.272273 -120.472138 110 14538ft 343kts
07-Aug-18 11:24 35.239837 -120.360556 111 16913ft 355kts
07-Aug-18 11:25 35.208690 -120.255343 111 18838ft 365kts
07-Aug-18 11:26 35.175562 -120.142844 111 20591ft 376kts
07-Aug-18 11:27 35.139989 -120.022265 111 20944ft 387kts
07-Aug-18 11:28 35.103761 -119.899909 111 20933ft 388kts
07-Aug-18 11:29 35.059408 -119.781312 114 20941ft 386kts
07-Aug-18 11:30 35.019800 -119.659204 112 20936ft 388kts
07-Aug-18 11:31 34.982257 -119.537432 111 20937ft 389kts
07-Aug-18 11:32 34.945017 -119.415840 111 20937ft 390kts
07-Aug-18 11:33 34.911499 -119.307335 112 20951ft 391kts
07-Aug-18 11:34 34.881385 -119.211725 111 20963ft 391kts
07-Aug-18 11:35 34.861330 -119.147627 111 20951ft 386kts
07-Aug-18 11:36 34.833002 -119.056497 111 19878ft 378kts
07-Aug-18 11:37 34.806949 -118.972515 111 18281ft 370kts
07-Aug-18 11:38 34.778786 -118.881922 112 16662ft 357kts
07-Aug-18 11:39 34.744742 -118.772876 112 14697ft 342kts
07-Aug-18 11:40 34.711619 -118.667148 112 12607ft 332kts
07-Aug-18 11:41 34.689378 -118.570056 88 12293ft 277kts
07-Aug-18 11:42 34.686588 -118.480163 97 11546ft 241kts
07-Aug-18 11:43 34.665621 -118.412732 140 10309ft 215kts
07-Aug-18 11:44 34.627547 -118.376415 136 9135ft 204kts
07-Aug-18 11:45 34.605944 -118.333578 112 8077ft 194kts
07-Aug-18 11:46 34.589615 -118.285253 111 6745ft 192kts
07-Aug-18 11:47 34.580086 -118.244099 96 6013ft 169kts
07-Aug-18 11:48 34.580870 -118.181317 84 4627ft 156kts
07-Aug-18 11:49 34.589356 -118.134920 60 3422ft 136kts
07-Aug-18 11:50 34.611439 -118.100022 50 2750ft 130kts
07-Aug-18 11:51 34.627171 -118.075826 51 2521ft 60kts
07-Aug-18 11:52 34.631545 -118.072634 51 2521ft 21kts
07-Aug-18 11:53 34.635201 -118.067621 267 2521ft 7kts
07-Aug-18 11:54 34.634739 -118.075517 264 2521ft 27kts
07-Aug-18 11:55 34.635565 -118.081808 356 2521ft 12kts
07-Aug-18 11:56 34.636651 -118.081839 0 2521ft 0kts

Navigation Log

Ident Type
Flight plan parsing failed, navigation log unavailable